Time;durP1;ratioP1;P1;durP2;ratioP2;P2;SDS_P1;SDS_P2;PMS_P1;PMS_P2;Temp;Humidity;BMP_temperature;BMP_pressure;BME280_temperature;BME280_humidity;BME280_pressure;Samples;Min_cycle;Max_cycle;Signal;HPM_P1;HPM_P2
2021/04/20 00:00:15;;;;;;;21.95;12.35;;;;;;;7.22;84.34;100626.22;5118274;28;20505;-83
2021/04/20 00:02:42;;;;;;;16.98;12.38;;;;;;;7.18;83.79;100627.19;5106805;28;20051;-82
2021/04/20 00:05:13;;;;;;;16.55;12.02;;;;;;;7.19;84.08;100632.44;5120773;28;20048;-80
2021/04/20 00:07:39;;;;;;;16.85;11.80;;;;;;;7.22;84.42;100629.72;5137263;28;20126;-81
2021/04/20 00:10:09;;;;;;;20.55;13.38;;;;;;;7.26;83.87;100633.97;5126994;28;20056;-81
2021/04/20 00:12:35;;;;;;;18.73;12.47;;;;;;;7.09;83.64;100609.88;5131009;28;20091;-80
2021/04/20 00:15:05;;;;;;;17.63;12.80;;;;;;;7.20;83.77;100633.28;5132756;28;20040;-82
2021/04/20 00:17:32;;;;;;;19.30;13.00;;;;;;;7.14;83.65;100629.06;5130538;28;20044;-83
2021/04/20 00:19:58;;;;;;;20.05;12.70;;;;;;;7.05;83.45;100618.81;5113402;28;20091;-82
2021/04/20 00:22:24;;;;;;;20.02;12.70;;;;;;;6.99;84.06;100625.09;5126772;28;20035;-83
2021/04/20 00:24:51;;;;;;;18.60;13.20;;;;;;;6.97;84.46;100626.03;5125753;28;20051;-81
2021/04/20 00:27:18;;;;;;;18.17;12.95;;;;;;;6.93;84.34;100630.53;5126822;28;20032;-82
2021/04/20 00:29:45;;;;;;;20.83;13.52;;;;;;;6.87;84.33;100622.81;5104204;28;20107;-83
2021/04/20 00:32:11;;;;;;;20.55;13.93;;;;;;;6.81;84.28;100619.47;5124035;28;20078;-84
2021/04/20 00:34:37;;;;;;;19.95;13.70;;;;;;;6.75;85.03;100620.53;5121551;28;20656;-82
2021/04/20 00:37:03;;;;;;;19.52;13.82;;;;;;;6.69;85.25;100605.78;5121500;28;20079;-84
2021/04/20 00:39:30;;;;;;;22.13;14.32;;;;;;;6.63;85.41;100605.94;5132170;28;20133;-84
2021/04/20 00:42:05;;;;;;;21.55;14.13;;;;;;;6.62;85.59;100611.22;5127690;28;20067;-83
2021/04/20 00:44:32;;;;;;;21.67;13.93;;;;;;;6.62;86.15;100613.84;5113425;28;20051;-82
2021/04/20 00:46:59;;;;;;;20.25;14.25;;;;;;;6.67;85.86;100610.22;5125400;28;20103;-83
2021/04/20 00:49:29;;;;;;;20.88;14.68;;;;;;;6.69;85.99;100608.41;5129750;28;20043;-82
2021/04/20 00:51:56;;;;;;;23.50;14.77;;;;;;;6.72;86.32;100611.84;5130279;28;20048;-81
2021/04/20 00:54:23;;;;;;;23.77;15.05;;;;;;;6.72;86.27;100609.22;5137208;28;20059;-80
2021/04/20 00:56:50;;;;;;;19.50;13.32;;;;;;;6.77;85.72;100604.72;5099691;28;20060;-80
2021/04/20 00:59:16;;;;;;;19.55;13.57;;;;;;;6.75;85.22;100599.47;5131108;28;20068;-82
2021/04/20 01:01:44;;;;;;;21.10;14.60;;;;;;;6.67;84.50;100602.31;5109021;28;20147;-81
2021/04/20 01:04:15;;;;;;;21.45;14.40;;;;;;;6.52;84.72;100605.38;5139771;28;20040;-82
2021/04/20 01:06:43;;;;;;;22.58;15.10;;;;;;;6.44;85.66;100609.97;5139191;28;20062;-82
2021/04/20 01:09:10;;;;;;;20.33;14.38;;;;;;;6.44;86.91;100604.72;5121603;28;20062;-82
2021/04/20 01:11:37;;;;;;;23.38;16.20;;;;;;;6.43;86.86;100603.00;5108016;28;20039;-83
2021/04/20 01:14:05;;;;;;;24.08;16.08;;;;;;;6.38;87.04;100604.88;5110640;28;20067;-82
2021/04/20 01:16:33;;;;;;;24.45;15.88;;;;;;;6.40;87.56;100610.09;5114851;28;20071;-83
2021/04/20 01:19:02;;;;;;;25.10;16.88;;;;;;;6.42;87.61;100605.66;5123202;28;20040;-82
2021/04/20 01:21:29;;;;;;;27.73;16.95;;;;;;;6.38;87.60;100604.88;5132759;28;20058;-82
2021/04/20 01:24:01;;;;;;;28.85;17.42;;;;;;;6.36;87.83;100604.03;5103917;28;20043;-83
2021/04/20 01:26:30;;;;;;;26.35;17.17;;;;;;;6.34;87.96;100604.09;5102827;28;20115;-83
2021/04/20 01:28:58;;;;;;;25.25;17.25;;;;;;;6.33;88.06;100601.50;5116003;28;20383;-81
2021/04/20 01:31:30;;;;;;;26.48;17.23;;;;;;;6.28;87.95;100595.50;5111492;28;20050;-82
2021/04/20 01:33:57;;;;;;;25.20;16.45;;;;;;;6.26;88.21;100605.19;5116199;28;20048;-83
2021/04/20 01:36:27;;;;;;;26.73;17.42;;;;;;;6.26;88.87;100600.81;5112609;28;20105;-82
2021/04/20 01:38:54;;;;;;;25.65;17.15;;;;;;;6.28;88.98;100601.63;5112128;28;20047;-85
2021/04/20 01:41:23;;;;;;;25.17;16.83;;;;;;;6.27;88.67;100599.91;5113686;28;20147;-82
2021/04/20 01:43:52;;;;;;;26.25;16.98;;;;;;;6.27;88.64;100596.41;5116698;28;20493;-82
2021/04/20 01:46:19;;;;;;;25.45;17.15;;;;;;;6.29;88.30;100598.09;5116845;28;20173;-82
2021/04/20 01:48:47;;;;;;;27.88;18.40;;;;;;;6.29;88.81;100595.47;5114621;28;20047;-82
2021/04/20 01:51:14;;;;;;;28.63;18.05;;;;;;;6.30;88.79;100596.31;5101071;28;20074;-80
2021/04/20 01:53:41;;;;;;;26.70;17.42;;;;;;;6.30;88.55;100596.31;5124182;28;20110;-79
2021/04/20 01:56:09;;;;;;;28.20;18.48;;;;;;;6.30;88.55;100596.31;5122590;28;20062;-82
2021/04/20 01:58:37;;;;;;;26.45;17.05;;;;;;;6.25;88.55;100596.44;5106947;28;20035;-83
2021/04/20 02:01:06;;;;;;;25.98;17.50;;;;;;;6.25;88.78;100592.94;5117173;28;20107;-81
2021/04/20 02:03:33;;;;;;;27.10;17.38;;;;;;;6.27;88.72;100602.53;5121538;28;20047;-81
2021/04/20 02:06:00;;;;;;;27.63;17.38;;;;;;;6.23;88.26;100600.00;5123524;28;20052;-80
2021/04/20 02:08:28;;;;;;;23.80;16.33;;;;;;;6.15;88.15;100601.97;5126450;28;20040;-80
2021/04/20 02:11:04;;;;;;;26.45;17.38;;;;;;;6.10;88.30;100599.47;5126196;28;20055;-83
2021/04/20 02:13:34;;;;;;;27.77;18.35;;;;;;;6.07;88.70;100606.56;5131502;28;20073;-83
2021/04/20 02:16:07;;;;;;;25.98;17.90;;;;;;;5.98;89.08;100590.09;5129610;28;20067;-85
2021/04/20 02:18:40;;;;;;;28.00;17.63;;;;;;;6.04;89.28;100601.38;5111461;28;20039;-84
2021/04/20 02:21:09;;;;;;;28.63;18.40;;;;;;;5.99;89.34;100589.22;5133802;28;20047;-82
2021/04/20 02:23:36;;;;;;;28.77;18.02;;;;;;;6.07;89.68;100601.31;5136347;28;20355;-83
2021/04/20 02:26:09;;;;;;;30.88;18.50;;;;;;;6.05;89.11;100601.34;5127413;28;20056;-82
2021/04/20 02:28:38;;;;;;;27.65;18.08;;;;;;;6.04;89.32;100604.88;5125699;28;20043;-82
2021/04/20 02:31:08;;;;;;;29.02;18.35;;;;;;;6.01;89.62;100596.19;5118616;28;20044;-82
2021/04/20 02:33:35;;;;;;;28.42;19.08;;;;;;;6.05;89.76;100605.75;5120977;28;20073;-82
2021/04/20 02:36:04;;;;;;;28.23;18.25;;;;;;;6.04;88.84;100602.25;5128434;28;20047;-84
2021/04/20 02:38:32;;;;;;;27.58;17.88;;;;;;;6.02;88.51;100605.81;5125049;28;20059;-85
2021/04/20 02:41:02;;;;;;;26.08;16.85;;;;;;;5.98;88.64;100611.13;5126809;28;20043;-84
2021/04/20 02:43:31;;;;;;;22.85;15.85;;;;;;;5.96;88.23;100601.59;5130988;28;20086;-84
2021/04/20 02:46:00;;;;;;;26.60;17.25;;;;;;;5.90;87.94;100604.34;5120543;28;20127;-82
2021/04/20 02:48:28;;;;;;;23.55;16.48;;;;;;;5.80;88.30;100598.44;5129049;28;20057;-82
2021/04/20 02:50:55;;;;;;;25.13;16.73;;;;;;;5.77;88.57;100601.13;5122771;28;20079;-83
2021/04/20 02:53:23;;;;;;;25.00;16.65;;;;;;;5.76;87.93;100604.66;5123706;28;20073;-80
2021/04/20 02:55:50;;;;;;;24.58;15.98;;;;;;;5.72;88.33;100600.38;5131110;28;20106;-80
2021/04/20 02:58:23;;;;;;;27.45;16.88;;;;;;;5.69;88.23;100608.31;5119335;28;20032;-82
2021/04/20 03:00:58;;;;;;;27.65;18.38;;;;;;;5.68;88.67;100605.72;5112410;28;20051;-82
2021/04/20 03:03:24;;;;;;;27.05;17.35;;;;;;;5.63;88.46;100609.34;5111370;28;20065;-83
2021/04/20 03:05:51;;;;;;;30.63;17.88;;;;;;;5.60;88.56;100608.56;5107006;28;20048;-83
2021/04/20 03:08:43;;;;;;;27.33;18.17;;;;;;;5.57;88.65;100603.34;5116991;28;20149;-82
2021/04/20 03:11:15;;;;;;;28.27;18.85;;;;;;;5.54;88.89;100603.44;5114596;28;20040;-84
2021/04/20 03:13:46;;;;;;;31.23;18.33;;;;;;;5.50;88.54;100601.78;5123903;28;20043;-81
2021/04/20 03:16:27;;;;;;;28.85;17.90;;;;;;;5.49;88.71;100608.81;5126830;28;20032;-85
2021/04/20 03:18:56;;;;;;;30.90;19.13;;;;;;;5.47;89.02;100602.72;5130773;28;20039;-84
2021/04/20 03:21:25;;;;;;;28.42;17.95;;;;;;;5.44;89.29;100596.66;5094099;28;20028;-83
2021/04/20 03:23:54;;;;;;;32.65;19.30;;;;;;;5.48;88.88;100606.22;5137764;28;20032;-83
2021/04/20 03:26:26;;;;;;;29.80;19.63;;;;;;;5.46;89.15;100605.38;5108691;28;20477;-82
2021/04/20 03:29:00;;;;;;;29.85;18.38;;;;;;;5.42;89.10;100599.31;5117831;28;20051;-82
2021/04/20 03:31:27;;;;;;;30.30;19.33;;;;;;;5.40;88.87;100600.25;5117825;28;20376;-83
2021/04/20 03:34:10;;;;;;;28.77;18.15;;;;;;;5.42;89.52;100601.09;5118424;27;20111;-82
2021/04/20 03:36:42;;;;;;;30.55;19.08;;;;;;;5.41;89.13;100599.34;5116548;28;20123;-84
2021/04/20 03:39:32;;;;;;;27.85;18.58;;;;;;;5.39;89.53;100606.41;5118396;28;20126;-83
2021/04/20 03:42:10;;;;;;;30.10;19.03;;;;;;;5.35;89.24;100597.75;5118407;28;20040;-83
2021/04/20 03:44:41;;;;;;;29.52;18.65;;;;;;;5.36;89.57;100609.09;5109136;28;20052;-83
2021/04/20 03:47:18;;;;;;;31.48;19.42;;;;;;;5.31;89.68;100603.97;5109697;27;20090;-83
2021/04/20 03:49:49;;;;;;;29.63;18.88;;;;;;;5.30;89.42;100604.84;5099623;28;20142;-82
2021/04/20 03:52:23;;;;;;;31.67;19.25;;;;;;;5.26;90.21;100604.06;5110932;28;20052;-82
2021/04/20 03:54:52;;;;;;;32.88;19.40;;;;;;;5.26;89.77;100598.81;5112701;28;20139;-83
2021/04/20 03:57:24;;;;;;;33.63;20.50;;;;;;;5.24;90.15;100595.34;5112240;28;20138;-83
2021/04/20 03:59:52;;;;;;;34.47;20.27;;;;;;;5.23;90.70;100598.84;5113456;28;20425;-82
2021/04/20 04:02:20;;;;;;;33.22;20.88;;;;;;;5.21;90.73;100587.53;5115179;28;20135;-82
2021/04/20 04:04:47;;;;;;;35.67;21.17;;;;;;;5.21;91.17;100597.16;5112554;28;20048;-83
2021/04/20 04:07:17;;;;;;;34.45;19.92;;;;;;;5.24;90.62;100603.22;5119013;28;20104;-82
2021/04/20 04:09:45;;;;;;;32.28;18.77;;;;;;;5.17;89.79;100609.50;5115363;28;20039;-82
2021/04/20 04:12:16;;;;;;;31.42;19.98;;;;;;;5.11;89.51;100599.13;5119595;28;20393;-82
2021/04/20 04:14:43;;;;;;;;;;;;;;;5.15;89.91;100603.44;5110209;28;20127;-81
2021/04/20 04:17:15;;;;;;;30.67;18.20;;;;;;;5.12;90.01;100605.25;5115332;28;20018;-83
2021/04/20 04:19:45;;;;;;;30.50;19.00;;;;;;;5.11;89.33;100596.50;5095882;28;20413;-82
2021/04/20 04:22:13;;;;;;;30.50;19.25;;;;;;;5.18;89.67;100611.25;5111787;28;20082;-82
2021/04/20 04:24:56;;;;;;;31.60;18.90;;;;;;;5.10;89.17;100602.66;5110192;28;20289;-82
2021/04/20 04:27:25;;;;;;;30.92;18.67;;;;;;;5.04;89.14;100610.66;5114705;28;20177;-81
2021/04/20 04:29:54;;;;;;;28.90;17.58;;;;;;;4.96;89.41;100607.34;5128837;28;20090;-83
2021/04/20 04:32:21;;;;;;;30.85;19.25;;;;;;;4.97;89.71;100606.44;5127898;28;20052;-84
2021/04/20 04:34:49;;;;;;;31.58;18.70;;;;;;;4.98;88.98;100600.28;5115105;28;20047;-84
2021/04/20 04:37:15;;;;;;;32.10;18.90;;;;;;;4.87;88.65;100594.41;5107736;28;20055;-81
2021/04/20 04:39:43;;;;;;;29.35;18.15;;;;;;;4.88;89.34;100599.59;5122757;28;20052;-85
2021/04/20 04:42:09;;;;;;;29.73;18.20;;;;;;;4.97;90.28;100593.31;5127634;28;20047;-80
2021/04/20 04:44:48;;;;;;;28.95;18.20;;;;;;;5.12;89.55;100607.88;5131691;28;20046;-81
2021/04/20 04:47:18;;;;;;;30.17;17.83;;;;;;;5.16;88.83;100599.91;5116005;28;20065;-81
2021/04/20 04:49:50;;;;;;;30.77;18.40;;;;;;;5.23;88.40;100600.63;5125692;28;20054;-81
2021/04/20 04:52:28;;;;;;;29.13;18.02;;;;;;;5.29;87.66;100609.25;5091158;28;20032;-80
2021/04/20 04:54:54;;;;;;;28.40;17.38;;;;;;;5.32;87.35;100604.81;5091273;28;20087;-82
2021/04/20 04:57:22;;;;;;;28.85;17.33;;;;;;;5.35;87.30;100607.38;5089070;28;20087;-82
2021/04/20 04:59:50;;;;;;;29.88;18.23;;;;;;;5.35;87.13;100603.00;5074055;28;20537;-82
2021/04/20 05:02:17;;;;;;;29.10;18.70;;;;;;;5.39;87.30;100606.41;5083220;28;20112;-80
2021/04/20 05:04:43;;;;;;;30.45;18.77;;;;;;;5.45;87.04;100615.03;5073396;28;20055;-84
2021/04/20 05:07:12;;;;;;;31.48;18.98;;;;;;;5.51;86.73;100608.78;5085916;28;20462;-82
2021/04/20 05:09:38;;;;;;;27.98;17.77;;;;;;;5.59;86.84;100617.31;5084990;28;20044;-79
2021/04/20 05:12:06;;;;;;;29.38;17.73;;;;;;;5.63;86.69;100611.97;5135218;28;20039;-83
2021/04/20 05:14:32;;;;;;;31.85;18.42;;;;;;;5.68;86.72;100619.72;5127191;28;20046;-82
2021/04/20 05:16:59;;;;;;;31.65;18.77;;;;;;;5.74;86.83;100622.22;5113910;28;20067;-84
2021/04/20 05:19:33;;;;;;;33.33;19.80;;;;;;;5.81;86.60;100623.81;5133327;28;20032;-82
2021/04/20 05:22:02;;;;;;;29.70;18.45;;;;;;;5.84;86.10;100615.84;5121142;28;20071;-81
2021/04/20 05:24:29;;;;;;;31.55;18.35;;;;;;;5.92;85.44;100624.44;5125689;28;20101;-82
2021/04/20 05:26:56;;;;;;;33.60;20.15;;;;;;;5.99;85.33;100622.50;5115600;28;20099;-83
2021/04/20 05:29:23;;;;;;;32.65;19.92;;;;;;;6.08;85.65;100634.59;5128459;28;20737;-83
2021/04/20 05:31:50;;;;;;;31.25;20.70;;;;;;;6.16;84.98;100629.97;5126578;28;20118;-81
2021/04/20 05:34:20;;;;;;;31.35;19.88;;;;;;;6.20;85.08;100622.00;5129573;28;20107;-82
2021/04/20 05:36:49;;;;;;;30.10;19.13;;;;;;;6.34;84.80;100629.53;5127539;28;20028;-82
2021/04/20 05:39:16;;;;;;;33.28;20.15;;;;;;;6.46;84.68;100623.94;5133477;28;20047;-81
2021/04/20 05:41:43;;;;;;;33.70;20.85;;;;;;;6.62;84.17;100627.00;5135946;27;20055;-82
2021/04/20 05:44:12;;;;;;;37.85;20.67;;;;;;;6.75;83.71;100624.94;5131009;27;20036;-81
2021/04/20 05:46:41;;;;;;;40.17;21.50;;;;;;;6.82;83.05;100616.81;5128100;27;20064;-82
2021/04/20 05:49:09;;;;;;;;;;;;;;;6.95;82.63;100625.22;5125746;28;20047;-82
2021/04/20 05:51:40;;;;;;;35.10;20.67;;;;;;;7.04;82.63;100627.59;5128092;28;19994;-82
2021/04/20 05:54:08;;;;;;;39.38;21.95;;;;;;;7.13;82.78;100624.69;5112079;28;20043;-82
2021/04/20 05:56:37;;;;;;;37.38;22.48;;;;;;;7.16;82.34;100621.13;5124484;28;20052;-82
2021/04/20 05:59:06;;;;;;;34.25;21.17;;;;;;;7.23;82.22;100618.28;5129884;28;20119;-83
2021/04/20 06:01:42;;;;;;;38.15;22.10;;;;;;;7.31;81.97;100624.16;5109417;28;20040;-82
2021/04/20 06:04:11;;;;;;;34.78;20.45;;;;;;;7.36;82.00;100619.63;5124637;28;20047;-83
2021/04/20 06:06:43;;;;;;;36.65;21.02;;;;;;;7.49;81.30;100627.16;5127986;28;20092;-83
2021/04/20 06:09:10;;;;;;;37.80;21.77;;;;;;;7.56;81.80;100626.03;5126639;28;20048;-85
2021/04/20 06:11:39;;;;;;;33.67;21.15;;;;;;;7.72;83.05;100629.91;5127773;28;20107;-84
2021/04/20 06:14:06;;;;;;;36.10;20.70;;;;;;;7.86;83.25;100622.47;5131406;28;20070;-83
2021/04/20 06:16:34;;;;;;;35.20;20.83;;;;;;;8.01;82.05;100621.97;5134899;28;20051;-80
2021/04/20 06:19:01;;;;;;;35.88;21.33;;;;;;;8.15;80.14;100615.38;5130950;28;20051;-83
2021/04/20 06:21:29;;;;;;;37.83;22.15;;;;;;;8.35;79.44;100623.47;5129166;28;20073;-85
2021/04/20 06:24:02;;;;;;;34.80;22.45;;;;;;;8.56;79.17;100627.16;5128193;28;20126;-84
2021/04/20 06:26:29;;;;;;;37.67;23.10;;;;;;;8.71;78.69;100624.84;5119965;28;20051;-83
2021/04/20 06:28:55;;;;;;;34.67;22.73;;;;;;;9.03;78.26;100623.66;5137040;28;20046;-82
2021/04/20 06:31:22;;;;;;;37.15;23.23;;;;;;;10.07;76.74;100627.56;5135739;28;20047;-85
2021/04/20 06:33:48;;;;;;;34.03;21.38;;;;;;;11.68;69.39;100622.13;5131294;28;20043;-83
2021/04/20 06:36:15;;;;;;;34.88;21.75;;;;;;;13.23;63.72;100624.84;5120193;28;20058;-83
2021/04/20 06:38:42;;;;;;;31.58;20.80;;;;;;;14.38;55.91;100618.25;5121316;28;20044;-83
2021/04/20 06:41:10;;;;;;;31.38;21.27;;;;;;;15.28;54.50;100617.22;5128403;28;20066;-83
2021/04/20 06:44:02;;;;;;;30.35;19.33;;;;;;;16.13;51.02;100627.75;5128661;28;20036;-85
2021/04/20 06:46:43;;;;;;;30.58;20.48;;;;;;;16.66;49.04;100626.84;5119732;28;20032;-85
2021/04/20 06:49:17;;;;;;;;;;;;;;;17.25;47.12;100619.13;5133328;28;20051;-83
2021/04/20 06:51:56;;;;;;;28.60;20.65;;;;;;;17.35;47.00;100619.31;5133555;27;19965;-82
2021/04/20 06:54:35;;;;;;;28.25;19.30;;;;;;;17.40;45.70;100623.41;5135732;28;20037;-81
2021/04/20 06:57:08;;;;;;;26.95;19.40;;;;;;;17.31;44.74;100626.75;5118430;28;20054;-83
2021/04/20 06:59:49;;;;;;;26.38;19.45;;;;;;;17.37;46.28;100628.09;5122604;28;20051;-85
2021/04/20 07:02:41;;;;;;;28.80;19.92;;;;;;;17.32;45.17;100623.06;5116819;28;20052;-85
2021/04/20 07:05:10;;;;;;;27.38;19.77;;;;;;;17.59;44.03;100617.56;5120790;28;20047;-85
2021/04/20 07:08:04;;;;;;;27.58;20.23;;;;;;;17.69;43.55;100620.47;5117400;28;20080;-83
2021/04/20 07:10:34;;;;;;;23.48;18.00;;;;;;;17.95;43.59;100611.34;5112938;28;20086;-85
2021/04/20 07:13:06;;;;;;;22.13;17.33;;;;;;;18.20;40.83;100597.84;5109071;28;20043;-84
2021/04/20 07:15:34;;;;;;;22.65;17.27;;;;;;;18.29;40.82;100596.28;5114477;28;20067;-84
2021/04/20 07:18:34;;;;;;;24.30;17.90;;;;;;;18.69;40.35;100617.41;5109091;28;20085;-84
2021/04/20 07:21:23;;;;;;;21.52;17.67;;;;;;;18.63;40.50;100618.75;5110762;28;20071;-85
2021/04/20 07:24:12;;;;;;;22.02;18.20;;;;;;;18.78;40.24;100614.88;5103120;28;20112;-85
2021/04/20 07:27:06;;;;;;;22.92;17.90;;;;;;;19.15;39.54;100614.69;5125643;28;20063;-85
2021/04/20 07:30:29;;;;;;;26.15;18.42;;;;;;;18.61;40.41;100607.25;5128604;28;20064;-84
2021/04/20 07:33:38;;;;;;;22.83;17.38;;;;;;;18.63;40.31;100610.69;5026822;28;20128;-84
2021/04/20 07:36:23;;;;;;;24.00;18.83;;;;;;;17.95;41.84;100605.13;5116270;28;20051;-85
2021/04/20 07:39:13;;;;;;;25.15;18.33;;;;;;;18.61;40.05;100603.72;5114064;28;20142;-84
2021/04/20 07:42:04;;;;;;;22.05;17.67;;;;;;;18.89;40.03;100612.19;5114117;28;20077;-84
2021/04/20 07:44:40;;;;;;;21.75;17.42;;;;;;;19.37;39.52;100603.06;5110542;28;20598;-84
2021/04/20 07:47:16;;;;;;;24.63;18.33;;;;;;;19.16;40.67;100598.44;5115107;28;20055;-84
2021/04/20 07:49:53;;;;;;;24.65;18.05;;;;;;;18.67;40.30;100596.06;5114484;28;20615;-83
2021/04/20 07:52:32;;;;;;;24.45;18.85;;;;;;;18.14;41.47;100586.72;5095770;28;20044;-84
2021/04/20 07:55:16;;;;;;;24.17;19.42;;;;;;;17.67;42.95;100591.13;5116277;28;20077;-84
2021/04/20 07:57:48;;;;;;;24.08;18.85;;;;;;;17.99;42.75;100580.69;5116581;28;20199;-85
2021/04/20 08:00:18;;;;;;;23.75;19.05;;;;;;;18.25;40.78;100583.25;5113001;28;20043;-83
2021/04/20 08:02:56;;;;;;;22.70;17.92;;;;;;;18.72;42.18;100590.38;5112697;28;20067;-83
2021/04/20 08:05:31;;;;;;;21.27;17.35;;;;;;;19.24;40.93;100592.47;5113824;28;20078;-85
2021/04/20 08:08:44;;;;;;;22.17;18.10;;;;;;;19.53;38.66;100590.13;5115701;28;20521;-86
2021/04/20 08:11:21;;;;;;;24.80;19.63;;;;;;;19.35;38.70;100573.69;5119270;28;20047;-85
2021/04/20 08:14:14;;;;;;;25.73;19.77;;;;;;;19.01;39.45;100591.63;5123614;27;20035;-84
2021/04/20 08:17:10;;;;;;;23.85;19.25;;;;;;;18.52;40.84;100589.19;5110000;28;20079;-84
2021/04/20 08:19:47;;;;;;;21.35;17.17;;;;;;;19.03;39.86;100588.81;5090140;28;20052;-85
2021/04/20 08:22:15;;;;;;;22.75;18.55;;;;;;;19.75;38.78;100583.88;5121560;28;20107;-85
2021/04/20 08:24:52;;;;;;;22.60;19.15;;;;;;;19.36;38.98;100586.09;5125736;28;20077;-84
2021/04/20 08:27:48;;;;;;;23.38;19.63;;;;;;;18.70;39.67;100585.13;5123888;28;20047;-84
2021/04/20 08:30:36;;;;;;;27.27;20.35;;;;;;;17.66;42.23;100578.69;5105637;28;20051;-84
2021/04/20 08:33:09;;;;;;;24.25;19.55;;;;;;;16.76;43.95;100578.94;5130682;28;20048;-85
2021/04/20 08:35:37;;;;;;;30.02;20.02;;;;;;;15.95;45.93;100572.88;5138248;28;20054;-84
2021/04/20 08:38:32;;;;;;;27.23;20.50;;;;;;;15.36;48.43;100577.59;5115163;28;20032;-85
2021/04/20 08:41:33;;;;;;;29.17;21.02;;;;;;;15.26;50.05;100573.81;5134279;28;20051;-84
2021/04/20 08:44:29;;;;;;;29.23;21.10;;;;;;;15.13;49.00;100576.34;5119691;28;20036;-82
2021/04/20 08:47:19;;;;;;;27.15;19.33;;;;;;;14.76;50.80;100575.16;5132856;28;20095;-82
2021/04/20 08:49:53;;;;;;;30.65;20.95;;;;;;;14.77;52.01;100574.19;5112538;28;20031;-83
2021/04/20 08:52:38;;;;;;;31.35;21.40;;;;;;;14.76;51.64;100569.81;5126204;28;20066;-82
2021/04/20 08:55:28;;;;;;;31.08;20.52;;;;;;;14.45;52.16;100570.81;5117913;28;20058;-83
2021/04/20 08:58:17;;;;;;;28.88;19.83;;;;;;;14.26;52.01;100568.34;5101451;28;20486;-83
2021/04/20 09:01:12;;;;;;;28.80;20.85;;;;;;;14.14;52.78;100563.75;5118420;28;20047;-84
2021/04/20 09:04:17;;;;;;;29.20;20.48;;;;;;;13.87;53.71;100570.69;5123667;28;20048;-83
2021/04/20 09:06:58;;;;;;;34.80;21.65;;;;;;;13.91;54.54;100572.22;5116869;28;20439;-82
2021/04/20 09:09:29;;;;;;;28.45;20.60;;;;;;;13.84;54.00;100568.22;5114662;28;20062;-83
2021/04/20 09:12:05;;;;;;;29.52;20.75;;;;;;;13.60;54.26;100550.03;5123991;28;20112;-83
2021/04/20 09:14:44;;;;;;;29.45;20.67;;;;;;;13.71;53.71;100554.72;5116351;28;20047;-82
2021/04/20 09:17:31;;;;;;;29.75;20.67;;;;;;;13.63;53.75;100563.16;5111300;28;20048;-82
2021/04/20 09:20:07;;;;;;;31.10;21.77;;;;;;;13.71;54.53;100554.72;5113224;28;20043;-84
2021/04/20 09:22:58;;;;;;;28.98;19.23;;;;;;;13.78;54.46;100560.56;5111646;28;20040;-85
2021/04/20 09:25:39;;;;;;;30.95;20.40;;;;;;;13.87;53.85;100560.03;5113552;28;20498;-83
2021/04/20 09:28:30;;;;;;;27.80;19.30;;;;;;;14.00;53.68;100559.25;5102146;28;20047;-84
2021/04/20 09:31:10;;;;;;;29.63;20.75;;;;;;;14.02;53.42;100541.34;5120026;28;20054;-85
2021/04/20 09:33:52;;;;;;;28.17;20.40;;;;;;;14.18;52.37;100551.97;5131424;28;20058;-84
2021/04/20 09:36:38;;;;;;;28.60;19.77;;;;;;;14.08;52.22;100553.47;5135330;28;20115;-83
2021/04/20 09:39:19;;;;;;;30.83;20.77;;;;;;;14.06;52.97;100547.38;5129410;28;20054;-84
2021/04/20 09:41:46;;;;;;;28.58;20.33;;;;;;;14.19;51.85;100547.50;5107695;28;20058;-84
2021/04/20 09:44:20;;;;;;;25.83;18.70;;;;;;;14.27;51.79;100551.44;5112400;28;20082;-83
2021/04/20 09:46:49;;;;;;;30.92;21.38;;;;;;;14.28;51.44;100547.81;5113102;28;20438;-83
2021/04/20 09:49:40;;;;;;;28.00;19.75;;;;;;;14.28;53.27;100552.28;5115542;28;20135;-84
2021/04/20 09:52:13;;;;;;;29.73;20.80;;;;;;;14.50;52.27;100542.06;5116555;28;20077;-83
2021/04/20 09:55:12;;;;;;;28.33;20.67;;;;;;;14.69;50.92;100547.13;5131874;28;20043;-84
2021/04/20 09:58:06;;;;;;;27.85;18.67;;;;;;;14.88;49.84;100547.72;5120165;28;20076;-84
2021/04/20 10:00:34;;;;;;;28.48;19.55;;;;;;;14.92;49.55;100543.91;5119607;28;20059;-83
2021/04/20 10:03:19;;;;;;;22.98;16.83;;;;;;;15.04;49.14;100548.47;5096950;28;20445;-84
2021/04/20 10:06:10;;;;;;;25.17;17.13;;;;;;;15.26;48.89;100553.31;5104716;28;20107;-84
2021/04/20 10:09:01;;;;;;;30.92;20.05;;;;;;;15.36;48.46;100548.25;5122502;28;20039;-83
2021/04/20 10:11:33;;;;;;;29.73;20.42;;;;;;;15.37;48.04;100540.13;5120123;28;20052;-85
2021/04/20 10:14:16;;;;;;;29.02;19.92;;;;;;;15.43;47.80;100544.19;5134421;28;20074;-83
2021/04/20 10:17:10;;;;;;;26.20;19.42;;;;;;;15.44;47.96;100544.09;5124315;28;20031;-84
2021/04/20 10:20:01;;;;;;;27.10;18.75;;;;;;;15.56;47.05;100545.19;5124338;28;20483;-84
2021/04/20 10:22:43;;;;;;;27.67;19.38;;;;;;;15.56;46.74;100539.84;5121395;28;20047;-83
2021/04/20 10:25:21;;;;;;;26.85;18.88;;;;;;;15.59;46.94;100536.09;5128477;28;20055;-83
2021/04/20 10:27:54;;;;;;;27.90;19.30;;;;;;;15.62;46.97;100527.88;5132909;28;20044;-83
2021/04/20 10:30:28;;;;;;;24.83;17.98;;;;;;;15.64;46.43;100520.63;5114944;28;20043;-83
2021/04/20 10:32:59;;;;;;;27.40;18.38;;;;;;;15.65;46.39;100533.88;5114634;28;20036;-83
2021/04/20 10:35:33;;;;;;;27.55;18.38;;;;;;;15.69;46.29;100530.06;5120814;28;20466;-83
2021/04/20 10:38:10;;;;;;;23.10;17.55;;;;;;;15.76;45.80;100515.34;5116373;28;20047;-84
2021/04/20 10:40:37;;;;;;;26.13;17.73;;;;;;;15.84;45.75;100522.84;5112133;28;20058;-82
2021/04/20 10:43:06;;;;;;;27.15;18.83;;;;;;;15.89;45.90;100518.06;5108044;28;20043;-84
2021/04/20 10:45:34;;;;;;;24.40;17.77;;;;;;;15.93;45.35;100522.22;5119954;28;20093;-83
2021/04/20 10:48:02;;;;;;;28.52;18.08;;;;;;;15.97;44.48;100520.22;5115838;28;20133;-83
2021/04/20 10:50:34;;;;;;;22.02;16.38;;;;;;;16.02;44.04;100518.09;5119637;28;20046;-83
2021/04/20 10:53:08;;;;;;;30.10;17.67;;;;;;;16.08;43.25;100521.19;5125150;28;20040;-84
2021/04/20 10:55:38;;;;;;;22.95;16.98;;;;;;;15.98;43.61;100511.22;5122880;28;20081;-83
2021/04/20 10:58:07;;;;;;;21.15;15.90;;;;;;;16.08;44.05;100504.31;5111594;28;20077;-83
2021/04/20 11:00:35;;;;;;;22.45;15.82;;;;;;;15.97;42.93;100490.81;5121837;28;20176;-85
2021/04/20 11:03:07;;;;;;;22.07;14.97;;;;;;;15.98;42.90;100500.56;5132298;27;20061;-85
2021/04/20 11:05:34;;;;;;;24.35;15.55;;;;;;;16.13;42.75;100496.84;5119701;27;20056;-85
2021/04/20 11:08:02;;;;;;;24.52;16.27;;;;;;;16.25;42.37;100487.13;5110659;28;20057;-83
2021/04/20 11:10:36;;;;;;;20.70;15.55;;;;;;;16.38;41.90;100485.31;5110728;28;20067;-85
2021/04/20 11:13:07;;;;;;;21.95;14.63;;;;;;;16.64;41.65;100486.19;5099571;28;20044;-84
2021/04/20 11:15:34;;;;;;;18.05;14.38;;;;;;;16.82;41.31;100487.56;5120022;28;20040;-85
2021/04/20 11:18:14;;;;;;;17.52;13.68;;;;;;;16.97;41.55;100478.44;5108803;28;20807;-85
2021/04/20 11:20:51;;;;;;;15.85;12.25;;;;;;;17.15;40.66;100478.94;5114383;28;20069;-84
2021/04/20 11:23:22;;;;;;;16.50;12.68;;;;;;;17.23;39.72;100473.00;5118752;28;20053;-84
2021/04/20 11:25:53;;;;;;;15.90;12.10;;;;;;;17.25;39.42;100473.75;5115389;28;20052;-83
2021/04/20 11:28:28;;;;;;;15.43;11.50;;;;;;;17.09;38.55;100472.22;5116798;28;20044;-83
2021/04/20 11:30:57;;;;;;;14.82;10.77;;;;;;;17.07;38.19;100462.56;5115391;28;20058;-83
2021/04/20 11:33:34;;;;;;;14.10;10.30;;;;;;;17.01;38.49;100463.00;5113226;28;20679;-84
2021/04/20 11:36:05;;;;;;;13.05;10.05;;;;;;;17.12;39.76;100457.75;5113521;28;20508;-84
2021/04/20 11:38:43;;;;;;;13.13;9.00;;;;;;;17.31;37.78;100454.59;5096934;28;20046;-83
2021/04/20 11:41:14;;;;;;;9.73;7.70;;;;;;;17.53;36.47;100452.84;5127073;28;20071;-83
2021/04/20 11:43:52;;;;;;;7.53;5.97;;;;;;;17.69;36.42;100451.75;5123486;28;20028;-83